Time;durP1;ratioP1;P1;durP2;ratioP2;P2;SDS_P1;SDS_P2;PMS_P1;PMS_P2;Temp;Humidity;BMP_temperature;BMP_pressure;BME280_temperature;BME280_humidity;BME280_pressure;Samples;Min_cycle;Max_cycle;Signal;HPM_P1;HPM_P2
2022/07/07 00:00:13;;;;;;;5.07;3.05;;;;;;;;;;5094378;28;20548;-75
2022/07/07 00:02:39;;;;;;;5.13;3.00;;;;;;;;;;5094726;28;20097;-76
2022/07/07 00:05:06;;;;;;;5.57;3.40;;;;;;;;;;5094473;28;20040;-76
2022/07/07 00:07:32;;;;;;;8.15;3.22;;;;;;;;;;5094587;28;20099;-74
2022/07/07 00:09:59;;;;;;;8.00;3.03;;;;;;;;;;5093250;28;20097;-74
2022/07/07 00:12:25;;;;;;;5.75;2.83;;;;;;;;;;5093500;28;20052;-74
2022/07/07 00:14:52;;;;;;;5.50;2.70;;;;;;;;;;5090947;28;20083;-74
2022/07/07 00:17:18;;;;;;;5.70;2.88;;;;;;;;;;5092811;28;20118;-75
2022/07/07 00:19:45;;;;;;;5.35;2.47;;;;;;;;;;5093916;28;20060;-75
2022/07/07 00:22:11;;;;;;;3.80;2.90;;;;;;;;;;5093967;28;20087;-74
2022/07/07 00:24:37;;;;;;;6.43;2.85;;;;;;;;;;5094199;28;20040;-75
2022/07/07 00:27:04;;;;;;;5.18;2.97;;;;;;;;;;5093837;28;20508;-75
2022/07/07 00:29:30;;;;;;;5.55;3.20;;;;;;;;;;5093976;28;20060;-75
2022/07/07 00:31:57;;;;;;;5.53;3.05;;;;;;;;;;5093794;28;20090;-75
2022/07/07 00:34:23;;;;;;;4.40;2.50;;;;;;;;;;5093975;28;20058;-75
2022/07/07 00:36:50;;;;;;;6.35;2.83;;;;;;;;;;5092705;28;20080;-75
2022/07/07 00:39:16;;;;;;;2.58;2.25;;;;;;;;;;5093897;28;20078;-75
2022/07/07 00:41:43;;;;;;;5.97;3.22;;;;;;;;;;5093609;28;20063;-75
2022/07/07 00:44:10;;;;;;;5.38;2.85;;;;;;;;;;5093456;28;20492;-75
2022/07/07 00:46:57;;;;;;;5.85;2.47;;;;;;;;;;5093478;28;20060;-75
2022/07/07 00:49:24;;;;;;;;;;;;;;;;;;5094138;28;20101;-75
2022/07/07 00:51:51;;;;;;;4.97;2.97;;;;;;;;;;5093467;28;20298;-75
2022/07/07 00:54:17;;;;;;;6.45;2.85;;;;;;;;;;5093401;28;20048;-76
2022/07/07 00:56:44;;;;;;;4.65;2.67;;;;;;;;;;5093366;28;20040;-74
2022/07/07 00:59:13;;;;;;;3.58;2.25;;;;;;;;;;5093506;28;20048;-74
2022/07/07 01:01:41;;;;;;;5.05;2.30;;;;;;;;;;5093448;28;20040;-75
2022/07/07 01:04:09;;;;;;;4.45;2.05;;;;;;;;;;5091970;28;20052;-75
2022/07/07 01:06:35;;;;;;;;;;;;;;;;;;5093484;28;20113;-75
2022/07/07 01:09:02;;;;;;;3.43;2.10;;;;;;;;;;5093073;28;19931;-75
2022/07/07 01:11:43;;;;;;;4.32;2.42;;;;;;;;;;5093285;28;20079;-75
2022/07/07 01:14:10;;;;;;;2.92;1.90;;;;;;;;;;5092940;28;20556;-75
2022/07/07 01:16:36;;;;;;;3.22;1.90;;;;;;;;;;5092780;28;20492;-74
2022/07/07 01:19:03;;;;;;;4.47;2.50;;;;;;;;;;5092871;28;20442;-77
2022/07/07 01:21:31;;;;;;;4.75;2.10;;;;;;;;;;5093050;28;20075;-75
2022/07/07 01:23:57;;;;;;;3.92;2.30;;;;;;;;;;5092624;28;20052;-74
2022/07/07 01:26:26;;;;;;;2.97;2.08;;;;;;;;;;5092966;28;20060;-75
2022/07/07 01:28:52;;;;;;;3.38;2.05;;;;;;;;;;5092839;28;20098;-76
2022/07/07 01:31:19;;;;;;;2.67;2.15;;;;;;;;;;5092702;28;20507;-76
2022/07/07 01:33:45;;;;;;;3.65;2.70;;;;;;;;;;5092583;28;20139;-77
2022/07/07 01:36:12;;;;;;;2.95;2.17;;;;;;;;;;5092360;28;20542;-77
2022/07/07 01:38:38;;;;;;;3.70;2.17;;;;;;;;;;5091272;28;20052;-76
2022/07/07 01:41:05;;;;;;;8.73;2.10;;;;;;;;;;5092722;28;20090;-76
2022/07/07 01:43:31;;;;;;;3.33;1.98;;;;;;;;;;5092329;28;20579;-76
2022/07/07 01:45:58;;;;;;;4.93;1.95;;;;;;;;;;5092126;28;20078;-76
2022/07/07 01:48:24;;;;;;;3.30;1.87;;;;;;;;;;5092396;28;20109;-75
2022/07/07 01:50:51;;;;;;;7.25;2.17;;;;;;;;;;5092557;28;20106;-76
2022/07/07 01:53:17;;;;;;;5.25;2.45;;;;;;;;;;5092466;28;20097;-77
2022/07/07 01:55:44;;;;;;;5.10;1.90;;;;;;;;;;5092495;28;20076;-75
2022/07/07 01:58:10;;;;;;;4.65;2.10;;;;;;;;;;5092189;28;20083;-76
2022/07/07 02:00:37;;;;;;;4.43;2.13;;;;;;;;;;5092163;28;20510;-77
2022/07/07 02:03:03;;;;;;;3.38;2.05;;;;;;;;;;5092019;28;20503;-76
2022/07/07 02:05:30;;;;;;;3.23;2.00;;;;;;;;;;5092016;28;20048;-77
2022/07/07 02:07:56;;;;;;;2.80;1.85;;;;;;;;;;5092159;28;20094;-73
2022/07/07 02:13:08;;;;;;;2.90;2.00;;;;;;;;;;5092142;28;20079;-76
2022/07/07 02:15:34;;;;;;;3.05;1.92;;;;;;;;;;5091537;28;20044;-76
2022/07/07 02:18:01;;;;;;;4.90;2.00;;;;;;;;;;5090562;28;20087;-77
2022/07/07 02:20:27;;;;;;;6.53;2.30;;;;;;;;;;5092057;28;20051;-76
2022/07/07 02:22:54;;;;;;;4.20;1.67;;;;;;;;;;5090689;28;20172;-76
2022/07/07 02:25:20;;;;;;;3.22;1.70;;;;;;;;;;5092098;28;20442;-76
2022/07/07 02:27:47;;;;;;;2.17;1.65;;;;;;;;;;5091806;28;20048;-76
2022/07/07 02:30:13;;;;;;;4.70;2.08;;;;;;;;;;5091922;28;20117;-76
2022/07/07 02:32:40;;;;;;;2.90;1.73;;;;;;;;;;5091735;28;20514;-76
2022/07/07 02:35:06;;;;;;;4.40;2.33;;;;;;;;;;5091688;28;20503;-75
2022/07/07 02:37:34;;;;;;;3.53;1.70;;;;;;;;;;5091611;28;20570;-76
2022/07/07 02:40:01;;;;;;;3.30;1.70;;;;;;;;;;5091849;28;20044;-76
2022/07/07 02:42:27;;;;;;;2.90;1.85;;;;;;;;;;5091881;28;20055;-76
2022/07/07 02:44:54;;;;;;;4.35;2.20;;;;;;;;;;5091661;28;20104;-76
2022/07/07 02:47:22;;;;;;;3.60;1.90;;;;;;;;;;5091690;28;20052;-76
2022/07/07 02:49:48;;;;;;;4.10;2.22;;;;;;;;;;5091712;28;20120;-76
2022/07/07 02:52:14;;;;;;;1.67;1.58;;;;;;;;;;5091549;28;20079;-75
2022/07/07 02:54:41;;;;;;;4.43;2.10;;;;;;;;;;5091586;28;20502;-75
2022/07/07 02:57:08;;;;;;;3.42;2.13;;;;;;;;;;5091523;28;20073;-76
2022/07/07 02:59:36;;;;;;;2.33;2.07;;;;;;;;;;5091356;28;20094;-75
2022/07/07 03:02:03;;;;;;;2.97;1.90;;;;;;;;;;5091739;28;20346;-75
2022/07/07 03:04:29;;;;;;;2.33;2.00;;;;;;;;;;5090124;28;20043;-75
2022/07/07 03:06:56;;;;;;;2.97;1.95;;;;;;;;;;5091531;28;20086;-75
2022/07/07 03:09:22;;;;;;;3.17;1.95;;;;;;;;;;5091532;28;20113;-75
2022/07/07 03:11:49;;;;;;;3.40;1.70;;;;;;;;;;5091595;28;20044;-75
2022/07/07 03:14:15;;;;;;;2.28;1.73;;;;;;;;;;5091556;28;20048;-75
2022/07/07 03:16:42;;;;;;;2.88;1.70;;;;;;;;;;5091430;28;20059;-75
2022/07/07 03:19:08;;;;;;;4.00;1.55;;;;;;;;;;5091382;28;20048;-75
2022/07/07 03:21:35;;;;;;;5.07;1.80;;;;;;;;;;5091310;28;20036;-75
2022/07/07 03:24:01;;;;;;;2.10;1.50;;;;;;;;;;5091329;28;20055;-76
2022/07/07 03:26:28;;;;;;;2.13;1.48;;;;;;;;;;5089997;28;20048;-75
2022/07/07 03:28:55;;;;;;;2.10;1.90;;;;;;;;;;5094321;28;20048;-76
2022/07/07 03:31:21;;;;;;;4.25;1.80;;;;;;;;;;5095232;28;20048;-76
2022/07/07 03:33:48;;;;;;;4.00;1.80;;;;;;;;;;5094907;28;20051;-77
2022/07/07 03:36:14;;;;;;;2.45;1.40;;;;;;;;;;5095078;28;20054;-76
2022/07/07 03:38:41;;;;;;;3.67;1.60;;;;;;;;;;5094777;28;20043;-76
2022/07/07 03:41:07;;;;;;;2.47;1.50;;;;;;;;;;5094731;28;20040;-76
2022/07/07 03:43:34;;;;;;;2.78;1.40;;;;;;;;;;5094565;28;20052;-76
2022/07/07 03:46:00;;;;;;;1.45;1.35;;;;;;;;;;5094525;28;20054;-76
2022/07/07 03:48:28;;;;;;;3.23;1.50;;;;;;;;;;5093722;28;20051;-76
2022/07/07 03:50:54;;;;;;;1.63;1.13;;;;;;;;;;5094672;28;20280;-76
2022/07/07 03:53:21;;;;;;;1.93;1.30;;;;;;;;;;5094842;28;20052;-76
2022/07/07 03:55:48;;;;;;;1.40;1.10;;;;;;;;;;5094687;28;20036;-76
2022/07/07 03:58:15;;;;;;;2.20;1.00;;;;;;;;;;5094741;28;20054;-76
2022/07/07 04:00:42;;;;;;;0.70;0.68;;;;;;;;;;5094337;28;20500;-75
2022/07/07 04:03:09;;;;;;;0.82;0.82;;;;;;;;;;5094551;28;20036;-75
2022/07/07 04:05:36;;;;;;;0.70;0.70;;;;;;;;;;5094539;28;20048;-75
2022/07/07 04:08:02;;;;;;;1.80;0.60;;;;;;;;;;5094297;28;20040;-75
2022/07/07 04:10:29;;;;;;;1.25;0.70;;;;;;;;;;5093292;28;20052;-75
2022/07/07 04:12:55;;;;;;;2.50;1.05;;;;;;;;;;5094118;28;20500;-76
2022/07/07 04:15:22;;;;;;;1.27;0.60;;;;;;;;;;5094135;28;20393;-76
2022/07/07 04:17:48;;;;;;;0.50;0.50;;;;;;;;;;5094267;28;20044;-76
2022/07/07 04:20:15;;;;;;;0.90;0.60;;;;;;;;;;5094045;28;20048;-75
2022/07/07 04:22:41;;;;;;;0.60;0.47;;;;;;;;;;5093899;28;20078;-76
2022/07/07 04:25:08;;;;;;;0.68;0.68;;;;;;;;;;5094050;28;20502;-75
2022/07/07 04:27:35;;;;;;;1.03;0.60;;;;;;;;;;5094004;28;20478;-76
2022/07/07 04:30:02;;;;;;;1.20;0.60;;;;;;;;;;5093809;28;20825;-76
2022/07/07 04:32:28;;;;;;;0.68;0.65;;;;;;;;;;5093839;28;20055;-76
2022/07/07 04:34:55;;;;;;;1.45;0.80;;;;;;;;;;5093771;28;20058;-73
2022/07/07 04:37:21;;;;;;;0.82;0.60;;;;;;;;;;5093633;28;20056;-76
2022/07/07 04:39:48;;;;;;;1.27;0.90;;;;;;;;;;5093754;28;20430;-76
2022/07/07 04:42:14;;;;;;;0.73;0.50;;;;;;;;;;5093841;28;20472;-76
2022/07/07 04:44:41;;;;;;;1.13;0.65;;;;;;;;;;5093517;28;20048;-76
2022/07/07 04:47:08;;;;;;;0.60;0.60;;;;;;;;;;5093665;28;20055;-75
2022/07/07 04:49:35;;;;;;;0.65;0.55;;;;;;;;;;5093771;28;20051;-77
2022/07/07 04:52:01;;;;;;;2.20;0.68;;;;;;;;;;5093657;28;20076;-75
2022/07/07 04:54:28;;;;;;;0.85;0.60;;;;;;;;;;5093310;28;20097;-77
2022/07/07 04:56:54;;;;;;;1.45;0.50;;;;;;;;;;5093509;28;20126;-77
2022/07/07 04:59:21;;;;;;;0.57;0.57;;;;;;;;;;5093556;28;20044;-78
2022/07/07 05:01:47;;;;;;;0.73;0.55;;;;;;;;;;5093339;28;20093;-76
2022/07/07 05:04:14;;;;;;;1.95;0.68;;;;;;;;;;5093114;28;20101;-74
2022/07/07 05:06:40;;;;;;;0.98;0.50;;;;;;;;;;5093031;28;20503;-75
2022/07/07 05:09:07;;;;;;;1.05;0.50;;;;;;;;;;5093386;28;20056;-75
2022/07/07 05:11:33;;;;;;;0.93;0.75;;;;;;;;;;5093287;28;20048;-75
2022/07/07 05:14:00;;;;;;;1.27;0.60;;;;;;;;;;5093235;28;20106;-75
2022/07/07 05:16:26;;;;;;;1.33;0.50;;;;;;;;;;5093149;28;20048;-74
2022/07/07 05:18:53;;;;;;;2.60;0.70;;;;;;;;;;5093016;28;20046;-75
2022/07/07 05:21:19;;;;;;;0.50;0.50;;;;;;;;;;5091564;28;20450;-75
2022/07/07 05:23:46;;;;;;;0.73;0.73;;;;;;;;;;5093190;28;20533;-75
2022/07/07 05:26:12;;;;;;;1.38;0.50;;;;;;;;;;5092911;28;20052;-74
2022/07/07 05:28:41;;;;;;;0.50;0.50;;;;;;;;;;5093013;28;20044;-74
2022/07/07 05:31:12;;;;;;;0.77;0.70;;;;;;;;;;5092660;28;20044;-74
2022/07/07 05:33:39;;;;;;;1.10;0.63;;;;;;;;;;5092605;28;20495;-74
2022/07/07 05:36:06;;;;;;;2.40;0.80;;;;;;;;;;5092880;28;20070;-74
2022/07/07 05:38:33;;;;;;;2.45;0.70;;;;;;;;;;5092727;28;20056;-74
2022/07/07 05:41:00;;;;;;;2.67;0.77;;;;;;;;;;5092852;28;20040;-74
2022/07/07 05:43:27;;;;;;;1.65;0.60;;;;;;;;;;5092512;28;20052;-75
2022/07/07 05:45:54;;;;;;;2.95;1.08;;;;;;;;;;5092341;28;20506;-74
2022/07/07 05:48:20;;;;;;;1.10;0.80;;;;;;;;;;5092265;28;20060;-75
2022/07/07 05:50:47;;;;;;;1.17;0.70;;;;;;;;;;5091691;28;20055;-74
2022/07/07 05:53:13;;;;;;;2.63;1.15;;;;;;;;;;5092603;28;20048;-74
2022/07/07 05:55:40;;;;;;;2.70;0.57;;;;;;;;;;5092254;28;20164;-74
2022/07/07 05:58:07;;;;;;;1.85;0.90;;;;;;;;;;5092157;28;20066;-74
2022/07/07 06:00:34;;;;;;;;;;;;;;;;;;5092539;28;20401;-74
2022/07/07 06:03:01;;;;;;;2.67;1.65;;;;;;;;;;5092094;28;19924;-74
2022/07/07 06:05:27;;;;;;;1.40;0.63;;;;;;;;;;5092198;28;20047;-74
2022/07/07 06:07:55;;;;;;;2.50;0.80;;;;;;;;;;5078247;28;20044;-74
2022/07/07 06:10:21;;;;;;;0.63;0.52;;;;;;;;;;5091963;28;20064;-74
2022/07/07 06:12:48;;;;;;;0.90;0.70;;;;;;;;;;5092088;28;20108;-73
2022/07/07 06:15:17;;;;;;;2.55;0.80;;;;;;;;;;5091932;28;20120;-73
2022/07/07 06:17:44;;;;;;;1.05;0.68;;;;;;;;;;5092002;28;20052;-73
2022/07/07 06:20:30;;;;;;;1.23;0.80;;;;;;;;;;5091796;28;20075;-73
2022/07/07 06:22:57;;;;;;;1.87;0.87;;;;;;;;;;5091863;28;20484;-73
2022/07/07 06:25:26;;;;;;;2.80;1.08;;;;;;;;;;5091847;28;20048;-73
2022/07/07 06:27:52;;;;;;;1.38;1.02;;;;;;;;;;5091983;28;20059;-74
2022/07/07 06:30:19;;;;;;;0.90;0.50;;;;;;;;;;5090888;28;20508;-73
2022/07/07 06:32:46;;;;;;;2.58;1.20;;;;;;;;;;5091379;28;20523;-72
2022/07/07 06:35:13;;;;;;;1.10;1.00;;;;;;;;;;5091477;28;20047;-73
2022/07/07 06:37:39;;;;;;;1.00;0.80;;;;;;;;;;5091544;28;20040;-73
2022/07/07 06:40:06;;;;;;;1.38;1.27;;;;;;;;;;5091321;28;20043;-73
2022/07/07 06:42:32;;;;;;;2.92;1.38;;;;;;;;;;5091510;28;20048;-71
2022/07/07 06:44:59;;;;;;;2.70;0.98;;;;;;;;;;5091322;28;20492;-73
2022/07/07 06:47:25;;;;;;;5.65;3.35;;;;;;;;;;5082299;28;20068;-73
2022/07/07 06:49:52;;;;;;;3.13;1.10;;;;;;;;;;5088164;28;20090;-73
2022/07/07 06:52:19;;;;;;;2.85;1.50;;;;;;;;;;5091187;28;20048;-75
2022/07/07 06:54:46;;;;;;;1.25;1.00;;;;;;;;;;5091148;28;20496;-74
2022/07/07 06:57:12;;;;;;;1.42;1.10;;;;;;;;;;5091558;28;20462;-74
2022/07/07 06:59:39;;;;;;;1.00;1.00;;;;;;;;;;5091071;28;20458;-74
2022/07/07 07:02:05;;;;;;;1.98;0.77;;;;;;;;;;5091649;28;20454;-74
2022/07/07 07:04:32;;;;;;;0.90;0.80;;;;;;;;;;5095704;28;20450;-74
2022/07/07 07:06:59;;;;;;;1.52;1.13;;;;;;;;;;5095031;28;20044;-74
2022/07/07 07:09:26;;;;;;;2.50;0.90;;;;;;;;;;5095220;28;20097;-74
2022/07/07 07:11:54;;;;;;;3.10;0.88;;;;;;;;;;5095554;28;20052;-74
2022/07/07 07:14:24;;;;;;;1.83;0.80;;;;;;;;;;5095534;28;20056;-74
2022/07/07 07:16:51;;;;;;;1.37;0.90;;;;;;;;;;5095130;28;20050;-74
2022/07/07 07:19:18;;;;;;;1.55;1.00;;;;;;;;;;5095471;28;20285;-74
2022/07/07 07:21:44;;;;;;;1.27;0.68;;;;;;;;;;5095108;28;20514;-74
2022/07/07 07:24:12;;;;;;;0.82;0.70;;;;;;;;;;5095151;28;20051;-74
2022/07/07 07:26:39;;;;;;;2.03;1.00;;;;;;;;;;5094064;28;20055;-74
2022/07/07 07:29:12;;;;;;;2.08;0.93;;;;;;;;;;5095386;28;20056;-74
2022/07/07 07:31:38;;;;;;;2.33;1.00;;;;;;;;;;5094981;28;20549;-74
2022/07/07 07:34:05;;;;;;;2.43;1.30;;;;;;;;;;5094932;28;20040;-74
2022/07/07 07:36:32;;;;;;;2.22;0.80;;;;;;;;;;5094951;28;20450;-74
2022/07/07 07:38:58;;;;;;;1.42;1.00;;;;;;;;;;5094786;28;20086;-74
2022/07/07 07:41:25;;;;;;;1.95;1.05;;;;;;;;;;5095088;28;20109;-74
2022/07/07 07:43:51;;;;;;;1.40;1.13;;;;;;;;;;5094760;28;20445;-74
2022/07/07 07:46:19;;;;;;;2.08;0.85;;;;;;;;;;5094623;28;20060;-74
2022/07/07 07:48:46;;;;;;;2.17;1.10;;;;;;;;;;5094569;28;20488;-75
2022/07/07 07:51:13;;;;;;;1.33;0.93;;;;;;;;;;5094547;28;20067;-74
2022/07/07 07:53:39;;;;;;;0.93;0.80;;;;;;;;;;5094458;28;20056;-74
2022/07/07 07:56:06;;;;;;;2.40;1.00;;;;;;;;;;5093353;28;20048;-74
2022/07/07 07:58:32;;;;;;;1.77;0.90;;;;;;;;;;5094715;28;20043;-73
2022/07/07 08:00:59;;;;;;;1.87;0.93;;;;;;;;;;5094420;28;20089;-73
2022/07/07 08:03:25;;;;;;;2.53;0.90;;;;;;;;;;5094462;28;20080;-74
2022/07/07 08:05:53;;;;;;;1.00;0.80;;;;;;;;;;5094252;28;20276;-74
2022/07/07 08:08:19;;;;;;;2.33;1.23;;;;;;;;;;5094584;28;20454;-74
2022/07/07 08:10:46;;;;;;;2.10;1.30;;;;;;;;;;5094449;28;20415;-74
2022/07/07 08:13:12;;;;;;;1.77;1.13;;;;;;;;;;5093989;28;20040;-74
2022/07/07 08:15:39;;;;;;;3.28;1.20;;;;;;;;;;5094558;28;20137;-74
2022/07/07 08:18:05;;;;;;;1.60;1.07;;;;;;;;;;5094007;28;20446;-74
2022/07/07 08:20:32;;;;;;;1.63;1.52;;;;;;;;;;5094383;28;20040;-74
2022/07/07 08:22:59;;;;;;;2.73;1.57;;;;;;;;;;5094212;28;20043;-74
2022/07/07 08:25:25;;;;;;;1.70;1.02;;;;;;;;;;5094022;28;20470;-74
2022/07/07 08:27:52;;;;;;;2.10;1.33;;;;;;;;;;5093987;28;20051;-74
2022/07/07 08:30:18;;;;;;;4.93;1.33;;;;;;;;;;5093853;28;20056;-74
2022/07/07 08:32:45;;;;;;;2.03;1.10;;;;;;;;;;5093858;28;20047;-74
2022/07/07 08:35:13;;;;;;;2.15;1.40;;;;;;;;;;5093987;28;20052;-74
2022/07/07 08:37:39;;;;;;;2.65;1.60;;;;;;;;;;5094012;28;20052;-74
2022/07/07 08:40:06;;;;;;;2.43;1.63;;;;;;;;;;5093610;28;20188;-74
2022/07/07 08:42:37;;;;;;;1.85;1.30;;;;;;;;;;5093950;28;20622;-73
2022/07/07 08:45:04;;;;;;;2.60;1.40;;;;;;;;;;5094071;28;20052;-73
2022/07/07 08:47:31;;;;;;;3.35;1.35;;;;;;;;;;5093383;28;20102;-73
2022/07/07 08:49:58;;;;;;;1.60;1.20;;;;;;;;;;5093506;28;20557;-73
2022/07/07 08:52:25;;;;;;;;;;;;;;;;;;5093989;28;20101;-74
2022/07/07 08:54:51;;;;;;;3.07;1.30;;;;;;;;;;5093776;28;19920;-74
2022/07/07 08:57:18;;;;;;;3.27;1.70;;;;;;;;;;5093158;28;20056;-74
2022/07/07 08:59:44;;;;;;;2.15;1.17;;;;;;;;;;5093492;28;20055;-74
2022/07/07 09:02:11;;;;;;;2.88;1.52;;;;;;;;;;5093568;28;20051;-74
2022/07/07 09:04:37;;;;;;;1.50;1.40;;;;;;;;;;5093411;28;20093;-74
2022/07/07 09:07:05;;;;;;;3.05;1.35;;;;;;;;;;5093204;28;20092;-73
2022/07/07 09:09:31;;;;;;;;;;;;;;;;;;5093500;28;20051;-73
2022/07/07 09:12:01;;;;;;;2.10;1.52;;;;;;;;;;5093113;28;20325;-73
2022/07/07 09:14:35;;;;;;;2.47;1.10;;;;;;;;;;5093275;28;20048;-74
2022/07/07 09:17:01;;;;;;;3.25;1.45;;;;;;;;;;5093219;28;20101;-73
2022/07/07 09:19:28;;;;;;;1.50;1.40;;;;;;;;;;5092801;28;20123;-74
2022/07/07 09:21:54;;;;;;;2.07;1.40;;;;;;;;;;5093032;28;20703;-74
2022/07/07 09:24:21;;;;;;;3.23;1.47;;;;;;;;;;5092527;28;20453;-74
2022/07/07 09:26:50;;;;;;;2.80;1.52;;;;;;;;;;5092565;28;20048;-74
2022/07/07 09:29:18;;;;;;;2.53;1.30;;;;;;;;;;5092899;28;20086;-74
2022/07/07 09:32:01;;;;;;;1.83;1.27;;;;;;;;;;5092963;28;20063;-74
2022/07/07 09:34:30;;;;;;;1.80;0.90;;;;;;;;;;5092685;28;20070;-74
2022/07/07 09:39:45;;;;;;;0.95;0.85;;;;;;;;;;5093012;28;20055;-74
2022/07/07 09:42:32;;;;;;;2.65;0.93;;;;;;;;;;5092382;28;20071;-74
2022/07/07 09:45:00;;;;;;;;;;;;;;;;;;5092811;28;20084;-74
2022/07/07 09:47:27;;;;;;;1.08;0.80;;;;;;;;;;5092113;28;20333;-74
2022/07/07 09:50:01;;;;;;;1.80;1.00;;;;;;;;;;5092597;28;20450;-74
2022/07/07 09:52:28;;;;;;;1.40;0.77;;;;;;;;;;5092477;28;20109;-74
2022/07/07 09:54:56;;;;;;;2.58;0.93;;;;;;;;;;5092558;28;20051;-74
2022/07/07 09:57:22;;;;;;;2.38;1.20;;;;;;;;;;5092274;28;20093;-74
2022/07/07 09:59:49;;;;;;;2.53;1.35;;;;;;;;;;5092283;28;20044;-74
2022/07/07 10:02:23;;;;;;;4.05;0.90;;;;;;;;;;5092018;28;20080;-74
2022/07/07 10:04:54;;;;;;;1.35;1.00;;;;;;;;;;5092391;28;20433;-74
2022/07/07 10:07:25;;;;;;;2.08;0.80;;;;;;;;;;5092392;28;20117;-74
2022/07/07 10:09:52;;;;;;;2.50;0.82;;;;;;;;;;5092224;28;20097;-74
2022/07/07 10:12:26;;;;;;;3.78;1.20;;;;;;;;;;5091937;28;20048;-74
2022/07/07 10:15:11;;;;;;;1.73;0.90;;;;;;;;;;5092052;28;20549;-74
2022/07/07 10:17:38;;;;;;;1.80;0.80;;;;;;;;;;5091792;28;20530;-74
2022/07/07 10:20:06;;;;;;;1.58;0.75;;;;;;;;;;5091907;28;20040;-74
2022/07/07 10:22:34;;;;;;;1.00;0.80;;;;;;;;;;5091888;28;20089;-74
2022/07/07 10:25:01;;;;;;;0.90;0.70;;;;;;;;;;5091833;28;20488;-74
2022/07/07 10:27:27;;;;;;;;;;;;;;;;;;5092123;28;20077;-74
2022/07/07 10:29:58;;;;;;;0.68;0.55;;;;;;;;;;5091958;28;19928;-75
2022/07/07 10:32:39;;;;;;;1.27;0.80;;;;;;;;;;5092105;28;20059;-74
2022/07/07 10:35:07;;;;;;;1.10;0.75;;;;;;;;;;5091758;28;20048;-75
2022/07/07 10:37:45;;;;;;;2.45;1.00;;;;;;;;;;5091681;28;20056;-75
2022/07/07 10:40:17;;;;;;;1.58;0.85;;;;;;;;;;5091646;28;20492;-75
2022/07/07 10:42:50;;;;;;;0.88;0.88;;;;;;;;;;5091926;28;20266;-75
2022/07/07 10:45:17;;;;;;;0.98;0.80;;;;;;;;;;5091819;28;20044;-75
2022/07/07 10:47:43;;;;;;;;;;;;;;;;;;5091894;28;20105;-75
2022/07/07 10:50:39;;;;;;;3.17;1.10;;;;;;;;;;5091482;28;19924;-75
2022/07/07 10:53:26;;;;;;;0.98;0.90;;;;;;;;;;5074516;28;20105;-75
2022/07/07 10:55:53;;;;;;;0.95;0.80;;;;;;;;;;5091422;28;20101;-75
2022/07/07 10:58:38;;;;;;;1.30;1.10;;;;;;;;;;5091399;28;20093;-75
2022/07/07 11:01:08;;;;;;;0.93;0.80;;;;;;;;;;5091804;28;20106;-75
2022/07/07 11:03:38;;;;;;;1.55;0.90;;;;;;;;;;5091785;28;20063;-75
2022/07/07 11:06:05;;;;;;;1.13;0.80;;;;;;;;;;5091499;28;20072;-75
2022/07/07 11:08:36;;;;;;;1.00;0.82;;;;;;;;;;5091467;28;20048;-75
2022/07/07 11:11:04;;;;;;;1.70;1.05;;;;;;;;;;5091570;28;20097;-75
2022/07/07 11:13:30;;;;;;;0.75;0.75;;;;;;;;;;5091316;28;20148;-75
2022/07/07 11:16:09;;;;;;;2.00;0.60;;;;;;;;;;5091586;28;20105;-75
2022/07/07 11:18:36;;;;;;;1.98;0.70;;;;;;;;;;5091547;28;20109;-75
2022/07/07 11:21:04;;;;;;;2.00;0.80;;;;;;;;;;5091311;28;20105;-75
2022/07/07 11:23:52;;;;;;;0.95;0.70;;;;;;;;;;5091237;28;20510;-74
2022/07/07 11:26:20;;;;;;;1.25;0.73;;;;;;;;;;5091476;28;20537;-74
2022/07/07 11:28:49;;;;;;;0.60;0.60;;;;;;;;;;5091251;28;20044;-75
2022/07/07 11:31:15;;;;;;;0.70;0.70;;;;;;;;;;5091119;28;20401;-75
2022/07/07 11:33:48;;;;;;;0.77;0.70;;;;;;;;;;5091466;28;20123;-75
2022/07/07 11:36:21;;;;;;;0.88;0.68;;;;;;;;;;5091463;28;20105;-75
2022/07/07 11:39:02;;;;;;;0.80;0.60;;;;;;;;;;5091311;28;20040;-75
2022/07/07 11:41:41;;;;;;;0.65;0.57;;;;;;;;;;5091158;28;20561;-75
2022/07/07 11:44:18;;;;;;;1.05;0.75;;;;;;;;;;5091430;28;20188;-75
2022/07/07 11:46:46;;;;;;;0.80;0.60;;;;;;;;;;5090873;28;20101;-75
2022/07/07 11:49:14;;;;;;;0.73;0.73;;;;;;;;;;5093187;28;20048;-75
2022/07/07 11:51:42;;;;;;;0.93;0.80;;;;;;;;;;5094923;28;20044;-75
2022/07/07 11:54:09;;;;;;;0.98;0.52;;;;;;;;;;5094823;28;20076;-75
2022/07/07 11:56:37;;;;;;;0.68;0.63;;;;;;;;;;5094877;28;20482;-75
2022/07/07 11:59:04;;;;;;;0.63;0.52;;;;;;;;;;5094170;28;20480;-75
2022/07/07 12:01:32;;;;;;;0.95;0.70;;;;;;;;;;5094838;28;20093;-75
2022/07/07 12:04:00;;;;;;;0.65;0.63;;;;;;;;;;5094384;28;20044;-75
2022/07/07 12:06:27;;;;;;;0.57;0.57;;;;;;;;;;5094654;28;20047;-73
2022/07/07 12:08:55;;;;;;;1.67;0.98;;;;;;;;;;5094271;28;20107;-73
2022/07/07 12:11:22;;;;;;;1.08;0.60;;;;;;;;;;5094264;28;20105;-75
2022/07/07 12:13:49;;;;;;;;;;;;;;;;;;5094954;28;20044;-75
2022/07/07 12:16:15;;;;;;;;;;;;;;;;;;5094885;28;19977;-75
2022/07/07 12:18:42;;;;;;;1.48;0.60;;;;;;;;;;5094039;28;19923;-74
2022/07/07 12:21:10;;;;;;;0.82;0.60;;;;;;;;;;5094353;28;20062;-74
2022/07/07 12:23:38;;;;;;;2.50;0.75;;;;;;;;;;5094058;28;20044;-74
2022/07/07 12:26:15;;;;;;;0.90;0.50;;;;;;;;;;5093828;28;20094;-74
2022/07/07 12:28:42;;;;;;;0.40;0.35;;;;;;;;;;5094223;28;20097;-74
2022/07/07 12:31:14;;;;;;;0.50;0.50;;;;;;;;;;5094180;28;20400;-74
2022/07/07 12:33:41;;;;;;;0.40;0.40;;;;;;;;;;5094245;28;20127;-74
2022/07/07 12:36:09;;;;;;;0.68;0.50;;;;;;;;;;5093896;28;20048;-74
2022/07/07 12:38:39;;;;;;;0.30;0.30;;;;;;;;;;5093680;28;20055;-74
2022/07/07 12:41:06;;;;;;;0.50;0.40;;;;;;;;;;5093684;28;20095;-74
2022/07/07 12:43:34;;;;;;;0.88;0.50;;;;;;;;;;5093957;28;20102;-74
2022/07/07 12:46:05;;;;;;;1.20;0.63;;;;;;;;;;5093513;28;20533;-74
2022/07/07 12:48:41;;;;;;;0.45;0.40;;;;;;;;;;5093836;28;20060;-74
2022/07/07 12:51:07;;;;;;;0.57;0.40;;;;;;;;;;5093824;28;20097;-74
2022/07/07 12:53:35;;;;;;;;;;;;;;;;;;5093844;28;20093;-74
2022/07/07 12:56:02;;;;;;;1.13;0.70;;;;;;;;;;5093796;28;19980;-74
2022/07/07 12:58:29;;;;;;;0.40;0.35;;;;;;;;;;5093378;28;20090;-74
2022/07/07 13:00:55;;;;;;;;;;;;;;;;;;5093625;28;20066;-74
2022/07/07 13:03:26;;;;;;;0.55;0.40;;;;;;;;;;5093270;28;19965;-74
2022/07/07 13:05:53;;;;;;;0.68;0.60;;;;;;;;;;5093404;28;20046;-74
2022/07/07 13:08:20;;;;;;;0.55;0.55;;;;;;;;;;5091922;28;20549;-74
2022/07/07 13:10:46;;;;;;;0.82;0.50;;;;;;;;;;5093129;28;20418;-74
2022/07/07 13:13:13;;;;;;;2.40;0.40;;;;;;;;;;5093396;28;20043;-76
2022/07/07 13:15:40;;;;;;;0.68;0.43;;;;;;;;;;5093066;28;20040;-75
2022/07/07 13:18:06;;;;;;;1.48;0.50;;;;;;;;;;5092913;28;20403;-75
2022/07/07 13:20:33;;;;;;;0.30;0.30;;;;;;;;;;5092884;28;20087;-75
2022/07/07 13:23:00;;;;;;;1.10;0.50;;;;;;;;;;5091586;28;20085;-75
2022/07/07 13:25:26;;;;;;;1.65;0.47;;;;;;;;;;5093173;28;20129;-74
2022/07/07 13:27:53;;;;;;;0.77;0.45;;;;;;;;;;5093105;28;20051;-74
2022/07/07 13:30:19;;;;;;;0.47;0.47;;;;;;;;;;5093081;28;20068;-75
2022/07/07 13:32:46;;;;;;;0.80;0.60;;;;;;;;;;5092987;28;20059;-75
2022/07/07 13:35:12;;;;;;;0.25;0.25;;;;;;;;;;5091643;28;20044;-75
2022/07/07 13:37:39;;;;;;;0.85;0.63;;;;;;;;;;5092908;28;20110;-75
2022/07/07 13:40:06;;;;;;;0.50;0.50;;;;;;;;;;5092689;28;20048;-74
2022/07/07 13:42:35;;;;;;;0.45;0.40;;;;;;;;;;5092897;28;20052;-75
2022/07/07 13:45:02;;;;;;;1.20;0.40;;;;;;;;;;5092486;28;20048;-75
2022/07/07 13:47:28;;;;;;;0.43;0.43;;;;;;;;;;5092301;28;20060;-75
2022/07/07 13:49:59;;;;;;;0.47;0.40;;;;;;;;;;5092734;28;20442;-74
2022/07/07 13:52:41;;;;;;;1.05;0.40;;;;;;;;;;5092344;28;20052;-74
2022/07/07 13:55:08;;;;;;;1.80;0.50;;;;;;;;;;5092358;28;20051;-74
2022/07/07 13:57:35;;;;;;;0.63;0.50;;;;;;;;;;5092429;28;20047;-74
2022/07/07 14:00:02;;;;;;;1.38;0.50;;;;;;;;;;5092131;28;20051;-74
2022/07/07 14:02:28;;;;;;;0.57;0.40;;;;;;;;;;5092479;28;20089;-75
2022/07/07 14:05:00;;;;;;;0.30;0.30;;;;;;;;;;5092305;28;20051;-74
2022/07/07 14:07:27;;;;;;;0.77;0.50;;;;;;;;;;5091981;28;20534;-74
2022/07/07 14:09:53;;;;;;;0.75;0.60;;;;;;;;;;5092392;28;20117;-74
2022/07/07 14:12:20;;;;;;;0.40;0.40;;;;;;;;;;5091475;28;20613;-74
2022/07/07 14:14:47;;;;;;;0.85;0.40;;;;;;;;;;5092245;28;20056;-74
2022/07/07 14:17:13;;;;;;;1.63;0.50;;;;;;;;;;5092231;28;20063;-74
2022/07/07 14:19:40;;;;;;;0.52;0.40;;;;;;;;;;5092089;28;20446;-74
2022/07/07 14:22:09;;;;;;;0.80;0.50;;;;;;;;;;5091883;28;20539;-74
2022/07/07 14:24:37;;;;;;;0.50;0.50;;;;;;;;;;5092134;28;20127;-74
2022/07/07 14:27:04;;;;;;;0.90;0.40;;;;;;;;;;5091784;28;20052;-74
2022/07/07 14:29:30;;;;;;;0.40;0.40;;;;;;;;;;5091741;28;20056;-74
2022/07/07 14:31:57;;;;;;;1.05;0.50;;;;;;;;;;5091897;28;20105;-74
2022/07/07 14:34:28;;;;;;;0.77;0.60;;;;;;;;;;5092068;28;20133;-74
2022/07/07 14:36:55;;;;;;;0.77;0.60;;;;;;;;;;5091665;28;20052;-74
2022/07/07 14:39:21;;;;;;;0.32;0.32;;;;;;;;;;5091902;28;20048;-74
2022/07/07 14:41:49;;;;;;;1.15;0.47;;;;;;;;;;5091670;28;20056;-74
2022/07/07 14:44:16;;;;;;;0.50;0.50;;;;;;;;;;5091671;28;20536;-74
2022/07/07 14:46:42;;;;;;;1.30;0.40;;;;;;;;;;5091506;28;20056;-74
2022/07/07 14:49:09;;;;;;;0.52;0.52;;;;;;;;;;5091547;28;20206;-74
2022/07/07 14:51:36;;;;;;;1.38;0.50;;;;;;;;;;5091921;28;20048;-75
2022/07/07 14:54:02;;;;;;;1.15;0.57;;;;;;;;;;5091721;28;20132;-74